Terminal Aerodrome Forecast
Issued by NWS Wilmington, OH

Current Version | Previous Version | Graphics & Text | Print | Product List | Glossary On
Versions: 1 2 3 4 5 6 7 8 9 10 11 12 13 14 15 16 17 18 19 20 21 22 23 24 25 26
000
FTUS41 KILN 021100
TAFILN
TAF
KILN 021127Z 0212/0312 31012KT P6SM BKN015
     FM021230 31008KT P6SM SCT015 BKN200
     FM022100 35004KT P6SM SCT025 BKN150
     FM030000 08005KT P6SM FEW025 OVC120=

USA.gov is the U.S. government's official web portal to all federal, state and local government web resources and services.